createdAt,value
2019-03-31T00:02:30.508Z,4.20
2019-03-31T00:05:37.339Z,4.25
2019-03-31T00:08:40.569Z,4.40
2019-03-31T00:11:45.718Z,4.67
2019-03-31T00:14:49.770Z,4.45
2019-03-31T00:17:53.827Z,4.28
2019-03-31T00:20:58.898Z,4.30
2019-03-31T00:24:02.993Z,4.25
2019-03-31T00:27:07.025Z,4.75
2019-03-31T00:30:11.067Z,4.47
2019-03-31T00:33:15.052Z,4.00
2019-03-31T00:36:19.258Z,3.62
2019-03-31T00:39:23.386Z,4.22
2019-03-31T00:42:27.493Z,4.20
2019-03-31T00:45:31.546Z,4.33
2019-03-31T00:48:35.526Z,4.55
2019-03-31T00:51:41.688Z,4.33
2019-03-31T00:54:45.716Z,4.17
2019-03-31T00:57:49.821Z,4.60
2019-03-31T01:01:12.289Z,4.90
2019-03-31T01:04:18.430Z,4.58
2019-03-31T01:07:22.894Z,4.35
2019-03-31T01:10:28.087Z,4.67
2019-03-31T01:13:32.187Z,4.62
2019-03-31T01:16:36.158Z,4.67
2019-03-31T01:19:40.227Z,4.62
2019-03-31T01:22:45.365Z,4.40
2019-03-31T01:25:49.482Z,4.80
2019-03-31T01:28:53.578Z,4.47
2019-03-31T01:31:59.923Z,4.78
2019-03-31T01:35:04.320Z,4.17
2019-03-31T01:38:08.310Z,4.90
2019-03-31T01:41:12.957Z,4.53
2019-03-31T01:44:16.963Z,4.78
2019-03-31T01:47:21.526Z,4.70
2019-03-31T01:50:26.954Z,4.85
2019-03-31T01:53:34.195Z,4.58
2019-03-31T01:56:39.420Z,4.90
2019-03-31T01:59:43.491Z,5.05
2019-03-31T02:02:47.780Z,4.35
2019-03-31T02:05:52.027Z,5.00
2019-03-31T02:08:56.089Z,5.10
2019-03-31T02:12:00.131Z,4.78
2019-03-31T02:15:05.573Z,4.58
2019-03-31T02:18:09.659Z,4.83
2019-03-31T02:21:13.732Z,4.62
2019-03-31T02:24:17.705Z,5.37
2019-03-31T02:27:21.744Z,5.05
2019-03-31T02:30:25.856Z,4.42
2019-03-31T02:33:29.864Z,4.35
2019-03-31T02:36:33.883Z,5.15
2019-03-31T02:39:37.898Z,5.30
2019-03-31T02:42:43.971Z,4.55
2019-03-31T02:45:48.164Z,4.97
2019-03-31T02:48:52.209Z,4.83
2019-03-31T02:51:56.334Z,5.03
2019-03-31T02:55:00.592Z,5.28
2019-03-31T02:58:04.765Z,4.50
2019-03-31T03:01:09.944Z,4.90
2019-03-31T03:04:14.065Z,5.40
2019-03-31T03:07:18.692Z,4.80
2019-03-31T03:10:22.903Z,4.92
2019-03-31T03:13:28.694Z,4.67
2019-03-31T03:16:32.693Z,5.37
2019-03-31T03:19:36.712Z,5.10
2019-03-31T03:22:40.791Z,5.33
2019-03-31T03:25:55.699Z,4.80
2019-03-31T03:28:51.608Z,5.05
2019-03-31T03:31:55.612Z,5.30
2019-03-31T03:35:01.765Z,5.25
2019-03-31T03:38:05.898Z,5.30
2019-03-31T03:41:09.928Z,5.22
2019-03-31T03:44:16.156Z,5.12
2019-03-31T03:47:20.207Z,5.47
2019-03-31T03:50:24.209Z,5.10
2019-03-31T03:53:28.310Z,5.12
2019-03-31T03:56:32.407Z,5.20
2019-03-31T03:59:36.448Z,4.80
2019-03-31T04:02:40.574Z,4.97
2019-03-31T04:05:44.698Z,5.05
2019-03-31T04:08:48.710Z,5.33
2019-03-31T04:11:52.733Z,5.00
2019-03-31T04:14:56.722Z,5.50
2019-03-31T04:18:00.704Z,5.22
2019-03-31T04:21:04.995Z,5.87
2019-03-31T04:24:09.189Z,4.87
2019-03-31T04:27:13.328Z,5.25
2019-03-31T04:30:18.427Z,5.10
2019-03-31T04:33:22.624Z,4.70
2019-03-31T04:36:26.759Z,5.70
2019-03-31T04:39:30.869Z,5.28
2019-03-31T04:42:34.962Z,5.12
2019-03-31T04:45:39.039Z,5.50
2019-03-31T04:48:43.207Z,6.15
2019-03-31T04:51:47.267Z,5.53
2019-03-31T04:54:51.419Z,5.20
2019-03-31T04:57:55.491Z,5.30
2019-03-31T05:00:59.583Z,5.87
2019-03-31T05:04:05.267Z,5.25
2019-03-31T05:07:09.529Z,5.47
2019-03-31T05:10:13.644Z,5.50
2019-03-31T05:13:17.754Z,5.05
2019-03-31T05:16:21.812Z,5.60
2019-03-31T05:19:25.958Z,5.37
2019-03-31T05:22:30.033Z,6.10
2019-03-31T05:25:34.479Z,5.33
2019-03-31T05:28:38.498Z,5.58
2019-03-31T05:31:42.571Z,5.67
2019-03-31T05:34:46.758Z,5.70
2019-03-31T05:37:51.557Z,6.00
2019-03-31T05:40:55.745Z,5.37
2019-03-31T05:44:05.902Z,5.30
2019-03-31T05:47:06.753Z,5.35
2019-03-31T05:50:10.748Z,5.80
2019-03-31T05:53:14.764Z,5.83
2019-03-31T05:56:18.761Z,6.10
2019-03-31T05:59:22.788Z,5.72
2019-03-31T06:02:26.979Z,5.95
2019-03-31T06:05:31.021Z,5.62
2019-03-31T06:08:35.039Z,5.70
2019-03-31T06:11:39.865Z,5.85
2019-03-31T06:14:44.078Z,5.55
2019-03-31T06:17:48.225Z,5.60
2019-03-31T06:20:52.210Z,5.10
2019-03-31T06:23:56.375Z,5.30
2019-03-31T06:27:00.574Z,5.28
2019-03-31T06:30:04.926Z,5.30
2019-03-31T06:33:09.002Z,5.50
2019-03-31T06:36:12.992Z,5.53
2019-03-31T06:39:17.005Z,5.60
2019-03-31T06:42:21.115Z,5.78
2019-03-31T06:45:25.135Z,5.47
2019-03-31T06:48:29.152Z,5.87
2019-03-31T06:51:33.327Z,5.35
2019-03-31T06:54:37.464Z,5.28
2019-03-31T06:57:43.616Z,5.70
2019-03-31T07:00:49.695Z,5.85
2019-03-31T07:03:53.715Z,5.42
2019-03-31T07:06:58.841Z,5.70
2019-03-31T07:10:02.897Z,5.78
2019-03-31T07:13:07.056Z,5.62
2019-03-31T07:16:11.300Z,5.95
2019-03-31T07:19:15.587Z,4.95
2019-03-31T07:22:19.687Z,5.60
2019-03-31T07:25:23.668Z,5.90
2019-03-31T07:28:27.862Z,6.03
2019-03-31T07:31:31.867Z,5.42
2019-03-31T07:34:35.841Z,5.90
2019-03-31T07:37:47.240Z,6.12
2019-03-31T07:40:46.223Z,5.40
2019-03-31T07:43:51.220Z,5.53
2019-03-31T07:46:56.595Z,5.12
2019-03-31T07:50:00.666Z,5.03
2019-03-31T07:53:04.852Z,5.90
2019-03-31T07:56:08.982Z,6.22
2019-03-31T07:59:13.014Z,5.83
2019-03-31T08:02:17.143Z,5.70
2019-03-31T08:05:32.488Z,5.85
2019-03-31T08:08:26.995Z,6.53
2019-03-31T08:11:31.385Z,5.83
2019-03-31T08:14:35.369Z,6.50
2019-03-31T08:17:42.694Z,6.03
2019-03-31T08:20:45.299Z,5.67
2019-03-31T08:23:49.511Z,5.10
2019-03-31T08:26:53.515Z,6.25
2019-03-31T08:30:00.774Z,5.60
2019-03-31T08:33:05.443Z,5.50
2019-03-31T08:36:09.557Z,6.08
2019-03-31T08:39:13.714Z,5.53
2019-03-31T08:42:17.780Z,5.95
2019-03-31T08:45:22.000Z,5.80
2019-03-31T08:48:26.053Z,6.22
2019-03-31T08:51:31.271Z,5.70
2019-03-31T08:54:35.285Z,5.78
2019-03-31T08:57:39.400Z,6.00
2019-03-31T09:00:53.606Z,7.55
2019-03-31T09:03:57.566Z,5.80
2019-03-31T09:07:01.571Z,5.50
2019-03-31T09:10:06.951Z,5.47
2019-03-31T09:13:11.039Z,5.35
2019-03-31T09:16:15.128Z,5.25
2019-03-31T09:19:19.266Z,5.17
2019-03-31T09:22:23.258Z,5.47
2019-03-31T09:25:27.312Z,5.85
2019-03-31T09:28:31.402Z,5.28
2019-03-31T09:31:35.585Z,5.50
2019-03-31T09:34:39.718Z,5.37
2019-03-31T09:37:43.855Z,4.92
2019-03-31T09:40:48.873Z,5.12
2019-03-31T09:43:52.977Z,5.83
2019-03-31T09:46:58.015Z,5.30
2019-03-31T09:50:02.055Z,5.42
2019-03-31T09:53:06.136Z,6.55
2019-03-31T09:56:10.272Z,5.95
2019-03-31T09:59:14.368Z,5.80
2019-03-31T10:02:18.615Z,5.30
2019-03-31T10:05:22.666Z,5.37
2019-03-31T10:08:26.736Z,5.70
2019-03-31T10:11:30.854Z,5.70
2019-03-31T10:14:34.941Z,5.90
2019-03-31T10:17:39.064Z,5.40
2019-03-31T10:20:43.233Z,5.00
2019-03-31T10:23:47.295Z,5.35
2019-03-31T10:26:52.435Z,5.35
2019-03-31T10:29:56.547Z,5.05
2019-03-31T10:33:00.744Z,5.25
2019-03-31T10:36:05.895Z,4.85
2019-03-31T10:39:10.203Z,5.03
2019-03-31T10:42:14.246Z,4.83
2019-03-31T10:45:18.412Z,5.42
2019-03-31T10:48:22.573Z,5.37
2019-03-31T10:51:26.611Z,4.85
2019-03-31T10:54:30.738Z,5.08
2019-03-31T10:57:34.843Z,4.72
2019-03-31T11:00:38.960Z,5.33
2019-03-31T11:03:43.141Z,5.25
2019-03-31T11:06:58.470Z,5.30
2019-03-31T11:09:58.900Z,5.67
2019-03-31T11:13:04.117Z,5.15
2019-03-31T11:16:08.227Z,5.20
2019-03-31T11:19:13.300Z,5.28
2019-03-31T11:22:24.395Z,5.83
2019-03-31T11:25:29.469Z,4.85
2019-03-31T11:28:33.598Z,5.25
2019-03-31T11:31:38.759Z,4.97
2019-03-31T11:34:42.878Z,4.67
2019-03-31T11:37:47.056Z,7.85
2019-03-31T11:40:51.110Z,5.25
2019-03-31T11:43:55.297Z,5.65
2019-03-31T11:46:59.336Z,5.87
2019-03-31T11:50:03.719Z,5.83
2019-03-31T11:53:07.878Z,6.17
2019-03-31T11:56:12.286Z,5.78
2019-03-31T11:59:16.439Z,6.92
2019-03-31T12:02:27.435Z,7.70
2019-03-31T12:05:31.062Z,6.95
2019-03-31T12:08:36.301Z,8.30
2019-03-31T12:11:40.477Z,7.12
2019-03-31T12:14:44.731Z,7.20
2019-03-31T12:17:48.887Z,6.92
2019-03-31T12:20:52.934Z,9.68
2019-03-31T12:23:57.246Z,9.98
2019-03-31T12:27:01.363Z,6.62
2019-03-31T12:30:06.463Z,6.08
2019-03-31T12:33:11.825Z,6.37
2019-03-31T12:36:17.780Z,6.22
2019-03-31T12:39:21.814Z,6.00
2019-03-31T12:42:26.040Z,6.03
2019-03-31T12:45:30.050Z,5.45
2019-03-31T12:48:34.113Z,5.58
2019-03-31T12:51:38.146Z,4.97
2019-03-31T12:54:43.362Z,5.25
2019-03-31T12:57:47.581Z,5.00
2019-03-31T13:00:54.707Z,6.30
2019-03-31T13:03:58.806Z,5.70
2019-03-31T13:07:04.041Z,5.20
2019-03-31T13:10:10.146Z,4.90
2019-03-31T13:13:14.233Z,4.92
2019-03-31T13:16:18.350Z,5.53
2019-03-31T13:19:22.496Z,4.95
2019-03-31T13:22:26.601Z,4.78
2019-03-31T13:25:31.811Z,5.10
2019-03-31T13:28:35.910Z,4.53
2019-03-31T13:31:40.006Z,5.08
2019-03-31T13:34:45.269Z,5.20
2019-03-31T13:37:49.480Z,4.87
2019-03-31T13:40:53.526Z,4.42
2019-03-31T13:43:57.662Z,4.35
2019-03-31T13:47:01.712Z,4.75
2019-03-31T13:50:06.161Z,4.60
2019-03-31T13:53:10.186Z,4.97
2019-03-31T13:56:14.581Z,4.40
2019-03-31T13:59:19.322Z,4.83
2019-03-31T14:02:23.407Z,4.37
2019-03-31T14:05:28.996Z,4.20
2019-03-31T14:08:33.009Z,4.80
2019-03-31T14:11:37.277Z,4.67
2019-03-31T14:14:42.369Z,4.75
2019-03-31T14:17:46.470Z,4.85
2019-03-31T14:20:50.609Z,4.60
2019-03-31T14:23:54.599Z,4.22
2019-03-31T14:26:58.826Z,4.33
2019-03-31T14:30:02.882Z,4.80
2019-03-31T14:33:06.992Z,4.33
2019-03-31T14:36:12.112Z,4.20
2019-03-31T14:39:17.270Z,4.20
2019-03-31T14:42:21.353Z,4.10
2019-03-31T14:45:32.699Z,4.53
2019-03-31T14:48:36.690Z,4.25
2019-03-31T14:51:40.864Z,3.70
2019-03-31T14:54:44.973Z,4.40
2019-03-31T14:57:49.103Z,4.25
2019-03-31T15:00:53.220Z,4.12
2019-03-31T15:03:57.202Z,3.65
2019-03-31T15:07:01.371Z,4.62
2019-03-31T15:10:05.819Z,3.83
2019-03-31T15:13:09.944Z,4.10
2019-03-31T15:16:15.126Z,3.83
2019-03-31T15:19:20.168Z,3.75
2019-03-31T15:22:24.288Z,3.98
2019-03-31T15:25:30.464Z,3.75
2019-03-31T15:28:34.569Z,3.80
2019-03-31T15:31:38.690Z,4.97
2019-03-31T15:34:44.839Z,4.15
2019-03-31T15:37:50.989Z,3.15
2019-03-31T15:40:55.116Z,3.62
2019-03-31T15:43:59.254Z,4.08
2019-03-31T15:47:03.486Z,3.80
2019-03-31T15:50:08.627Z,3.62
2019-03-31T15:53:13.621Z,3.85
2019-03-31T15:56:17.704Z,3.65
2019-03-31T15:59:21.643Z,3.47
2019-03-31T16:02:27.084Z,5.15
2019-03-31T16:05:31.122Z,3.30
2019-03-31T16:08:34.807Z,3.25
2019-03-31T16:11:38.423Z,3.42
2019-03-31T16:14:41.917Z,3.50
2019-03-31T16:17:46.482Z,3.02
2019-03-31T16:20:50.131Z,3.27
2019-03-31T16:23:53.628Z,3.08
2019-03-31T16:26:57.951Z,3.27
2019-03-31T16:30:01.447Z,3.05
2019-03-31T16:33:07.069Z,3.10
2019-03-31T16:36:10.300Z,3.15
2019-03-31T16:39:13.788Z,3.05
2019-03-31T16:42:17.308Z,3.25
2019-03-31T16:45:20.758Z,4.40
2019-03-31T16:48:24.454Z,3.47
2019-03-31T16:51:28.112Z,3.25
2019-03-31T16:54:31.813Z,2.92
2019-03-31T16:57:35.411Z,3.37
2019-03-31T17:00:39.938Z,4.35
2019-03-31T17:03:43.436Z,3.45
2019-03-31T17:06:48.991Z,2.75
2019-03-31T17:09:52.514Z,3.05
2019-03-31T17:12:57.017Z,2.92
2019-03-31T17:16:01.735Z,2.70
2019-03-31T17:19:05.257Z,3.10
2019-03-31T17:22:08.735Z,2.83
2019-03-31T17:25:12.275Z,2.80
2019-03-31T17:28:16.800Z,2.70
2019-03-31T17:31:20.277Z,3.08
2019-03-31T17:34:23.792Z,2.58
2019-03-31T17:37:27.286Z,2.60
2019-03-31T17:40:30.769Z,2.50
2019-03-31T17:43:34.372Z,3.05
2019-03-31T17:46:38.156Z,2.40
2019-03-31T17:49:43.818Z,2.80
2019-03-31T17:52:48.498Z,3.45
2019-03-31T17:55:51.962Z,2.58
2019-03-31T17:58:55.476Z,2.98
2019-03-31T18:01:58.973Z,2.37
2019-03-31T18:05:02.473Z,2.92
2019-03-31T18:08:06.069Z,3.05
2019-03-31T18:11:09.674Z,2.62
2019-03-31T18:14:13.547Z,2.70
2019-03-31T18:17:17.077Z,2.45
2019-03-31T18:20:20.587Z,2.40
2019-03-31T18:23:25.166Z,2.60
2019-03-31T18:26:28.593Z,2.80
2019-03-31T18:29:32.048Z,2.72
2019-03-31T18:32:35.646Z,2.60
2019-03-31T18:35:39.133Z,2.90
2019-03-31T18:38:42.750Z,2.70
2019-03-31T18:41:46.336Z,3.60
2019-03-31T18:44:50.855Z,2.52
2019-03-31T18:47:54.377Z,2.62
2019-03-31T18:50:57.863Z,2.90
2019-03-31T18:54:23.533Z,2.15
2019-03-31T18:57:52.083Z,2.60
2019-03-31T19:01:05.388Z,2.47
2019-03-31T19:04:21.501Z,2.47
2019-03-31T19:07:35.286Z,2.50
2019-03-31T19:11:01.247Z,2.75
2019-03-31T19:14:21.391Z,2.47
2019-03-31T19:17:50.485Z,2.75
2019-03-31T19:21:19.130Z,2.58
2019-03-31T19:24:37.298Z,2.37
2019-03-31T19:27:57.510Z,2.55
2019-03-31T19:31:17.829Z,2.50
2019-03-31T19:34:43.407Z,2.30
2019-03-31T19:38:05.852Z,2.62
2019-03-31T19:41:19.996Z,1.98
2019-03-31T19:44:42.485Z,3.62
2019-03-31T19:48:02.615Z,2.35
2019-03-31T19:51:29.809Z,2.20
2019-03-31T19:54:58.684Z,2.15
2019-03-31T19:58:11.930Z,2.50
2019-03-31T20:01:23.697Z,2.50
2019-03-31T20:04:41.740Z,2.60
2019-03-31T20:08:02.997Z,2.00
2019-03-31T20:11:12.093Z,2.22
2019-03-31T20:14:35.670Z,2.30
2019-03-31T20:17:49.158Z,2.10
2019-03-31T20:21:04.495Z,2.83
2019-03-31T20:24:31.329Z,2.55
2019-03-31T20:27:52.773Z,2.37
2019-03-31T20:31:05.661Z,2.37
2019-03-31T20:34:23.930Z,2.50
2019-03-31T20:37:43.063Z,2.60
2019-03-31T20:41:04.510Z,2.20
2019-03-31T20:44:08.059Z,2.30
2019-03-31T20:47:13.580Z,2.20
2019-03-31T20:50:19.876Z,2.70
2019-03-31T20:53:23.423Z,2.30
2019-03-31T20:56:26.947Z,2.33
2019-03-31T20:59:30.453Z,2.40
2019-03-31T21:02:34.121Z,2.58
2019-03-31T21:05:40.043Z,2.50
2019-03-31T21:08:43.477Z,2.37
2019-03-31T21:11:46.979Z,2.30
2019-03-31T21:14:50.670Z,2.33
2019-03-31T21:17:54.355Z,2.12
2019-03-31T21:20:58.011Z,3.33
2019-03-31T21:24:01.498Z,2.25
2019-03-31T21:27:05.008Z,2.12
2019-03-31T21:30:08.505Z,2.45
2019-03-31T21:33:12.005Z,2.17
2019-03-31T21:36:17.678Z,2.40
2019-03-31T21:39:22.213Z,2.35
2019-03-31T21:42:26.809Z,2.40
2019-03-31T21:45:32.375Z,2.55
2019-03-31T21:48:35.877Z,2.33
2019-03-31T21:51:39.368Z,2.50
2019-03-31T21:54:42.861Z,2.30
2019-03-31T21:57:46.367Z,2.30
2019-03-31T22:00:55.023Z,2.00
2019-03-31T22:03:58.483Z,2.15
2019-03-31T22:07:01.977Z,2.15
2019-03-31T22:10:06.559Z,2.20
2019-03-31T22:13:10.004Z,2.20
2019-03-31T22:16:13.502Z,2.62
2019-03-31T22:19:17.009Z,2.10
2019-03-31T22:22:21.552Z,2.27
2019-03-31T22:25:25.038Z,2.33
2019-03-31T22:28:28.595Z,2.40
2019-03-31T22:31:32.051Z,2.30
2019-03-31T22:34:35.497Z,2.10
2019-03-31T22:37:39.043Z,2.35
2019-03-31T22:40:43.577Z,2.12
2019-03-31T22:43:48.188Z,2.30
2019-03-31T22:46:54.554Z,2.25
2019-03-31T22:49:57.986Z,2.47
2019-03-31T22:53:01.642Z,2.10
2019-03-31T22:56:05.166Z,2.10
2019-03-31T22:59:09.908Z,2.47
2019-03-31T23:02:13.611Z,2.22
2019-03-31T23:05:18.066Z,2.42
2019-03-31T23:08:21.658Z,2.30
2019-03-31T23:11:31.067Z,2.22
2019-03-31T23:14:34.567Z,2.05
2019-03-31T23:17:38.058Z,2.27
2019-03-31T23:20:41.587Z,2.25
2019-03-31T23:23:45.064Z,2.20
2019-03-31T23:26:48.669Z,2.30
2019-03-31T23:29:52.271Z,2.25
2019-03-31T23:32:55.792Z,2.10
2019-03-31T23:36:00.302Z,2.30
2019-03-31T23:39:05.069Z,2.15
2019-03-31T23:42:08.539Z,2.47
2019-03-31T23:45:12.215Z,2.05
2019-03-31T23:48:15.741Z,2.45
2019-03-31T23:51:19.268Z,2.27
2019-03-31T23:54:22.757Z,2.35
2019-03-31T23:57:42.323Z,1.92
